sensor_id;sensor_type;location;lat;lon;timestamp;pressure;altitude;pressure_sealevel;temperature;humidity
73981;BME280;62348;51.412;5.436;2023-09-19T00:01:20;100671.53;;;14.72;100.00
73981;BME280;62348;51.412;5.436;2023-09-19T00:03:45;100670.50;;;14.68;100.00
73981;BME280;62348;51.412;5.436;2023-09-19T00:06:11;100669.41;;;14.69;100.00
73981;BME280;62348;51.412;5.436;2023-09-19T00:08:38;100679.19;;;14.70;100.00
73981;BME280;62348;51.412;5.436;2023-09-19T00:11:04;100680.00;;;14.70;100.00
73981;BME280;62348;51.412;5.436;2023-09-19T00:13:32;100674.34;;;14.67;100.00
73981;BME280;62348;51.412;5.436;2023-09-19T00:15:58;100677.34;;;14.65;100.00
73981;BME280;62348;51.412;5.436;2023-09-19T00:18:25;100686.88;;;14.62;100.00
73981;BME280;62348;51.412;5.436;2023-09-19T00:21:01;100686.59;;;14.64;100.00
73981;BME280;62348;51.412;5.436;2023-09-19T00:23:27;100685.84;;;14.58;100.00
73981;BME280;62348;51.412;5.436;2023-09-19T00:25:53;100686.97;;;14.57;100.00
73981;BME280;62348;51.412;5.436;2023-09-19T00:28:22;100694.28;;;14.57;100.00
73981;BME280;62348;51.412;5.436;2023-09-19T00:30:48;100691.91;;;14.50;100.00
73981;BME280;62348;51.412;5.436;2023-09-19T00:33:17;100694.91;;;14.49;100.00
73981;BME280;62348;51.412;5.436;2023-09-19T00:35:51;100701.16;;;14.49;100.00
73981;BME280;62348;51.412;5.436;2023-09-19T00:38:17;100701.25;;;14.44;100.00
73981;BME280;62348;51.412;5.436;2023-09-19T00:40:47;100706.69;;;14.44;100.00
73981;BME280;62348;51.412;5.436;2023-09-19T00:43:12;100709.13;;;14.45;100.00
73981;BME280;62348;51.412;5.436;2023-09-19T00:45:38;100715.13;;;14.42;100.00
73981;BME280;62348;51.412;5.436;2023-09-19T00:48:04;100708.06;;;14.41;99.52
73981;BME280;62348;51.412;5.436;2023-09-19T00:50:32;100707.81;;;14.38;98.90
73981;BME280;62348;51.412;5.436;2023-09-19T00:52:58;100713.56;;;14.36;99.43
73981;BME280;62348;51.412;5.436;2023-09-19T00:55:25;100723.34;;;14.37;98.77
73981;BME280;62348;51.412;5.436;2023-09-19T00:57:50;100725.81;;;14.34;98.45
73981;BME280;62348;51.412;5.436;2023-09-19T01:00:16;100731.78;;;14.36;99.19
73981;BME280;62348;51.412;5.436;2023-09-19T01:02:45;100737.53;;;14.34;98.40
73981;BME280;62348;51.412;5.436;2023-09-19T01:05:12;100742.41;;;14.32;98.50
73981;BME280;62348;51.412;5.436;2023-09-19T01:07:41;100733.75;;;14.30;98.56
73981;BME280;62348;51.412;5.436;2023-09-19T01:10:09;100744.09;;;14.28;98.68
73981;BME280;62348;51.412;5.436;2023-09-19T01:12:47;100753.09;;;14.29;97.43
73981;BME280;62348;51.412;5.436;2023-09-19T01:29:10;100765.09;;;14.22;97.64
73981;BME280;62348;51.412;5.436;2023-09-19T01:31:40;100755.66;;;14.15;96.23
73981;BME280;62348;51.412;5.436;2023-09-19T01:34:08;100758.91;;;14.17;96.85
73981;BME280;62348;51.412;5.436;2023-09-19T01:36:37;100767.06;;;14.17;96.59
73981;BME280;62348;51.412;5.436;2023-09-19T01:39:07;100760.56;;;14.13;96.22
73981;BME280;62348;51.412;5.436;2023-09-19T01:44:25;100763.28;;;14.13;96.00
73981;BME280;62348;51.412;5.436;2023-09-19T01:46:58;100772.25;;;14.13;96.29
73981;BME280;62348;51.412;5.436;2023-09-19T01:49:44;100760.06;;;14.11;94.49
73981;BME280;62348;51.412;5.436;2023-09-19T01:52:13;100763.56;;;14.11;95.91
73981;BME280;62348;51.412;5.436;2023-09-19T01:54:50;100768.22;;;14.11;96.35
73981;BME280;62348;51.412;5.436;2023-09-19T02:00:10;100761.19;;;14.04;94.39
73981;BME280;62348;51.412;5.436;2023-09-19T02:02:43;100763.91;;;14.04;94.82
73981;BME280;62348;51.412;5.436;2023-09-19T02:05:09;100759.25;;;14.10;95.76
73981;BME280;62348;51.412;5.436;2023-09-19T02:07:35;100767.19;;;14.01;94.38
73981;BME280;62348;51.412;5.436;2023-09-19T02:10:04;100766.97;;;13.98;93.83
73981;BME280;62348;51.412;5.436;2023-09-19T02:12:31;100760.44;;;13.99;93.86
73981;BME280;62348;51.412;5.436;2023-09-19T02:14:58;100761.00;;;13.96;92.85
73981;BME280;62348;51.412;5.436;2023-09-19T02:17:24;100762.09;;;13.95;93.91
73981;BME280;62348;51.412;5.436;2023-09-19T02:19:52;100763.47;;;13.92;93.31
73981;BME280;62348;51.412;5.436;2023-09-19T02:22:18;100759.47;;;13.84;91.79
73981;BME280;62348;51.412;5.436;2023-09-19T02:24:43;100758.09;;;13.87;91.71
73981;BME280;62348;51.412;5.436;2023-09-19T02:27:08;100760.56;;;13.83;91.57
73981;BME280;62348;51.412;5.436;2023-09-19T02:29:34;100760.31;;;13.80;91.08
73981;BME280;62348;51.412;5.436;2023-09-19T02:32:00;100761.41;;;13.79;91.13
73981;BME280;62348;51.412;5.436;2023-09-19T02:34:28;100772.59;;;13.77;91.15
73981;BME280;62348;51.412;5.436;2023-09-19T02:36:53;100767.16;;;13.77;91.19
73981;BME280;62348;51.412;5.436;2023-09-19T02:39:21;100769.31;;;13.75;90.63
73981;BME280;62348;51.412;5.436;2023-09-19T02:41:46;100774.81;;;13.70;90.63
73981;BME280;62348;51.412;5.436;2023-09-19T02:44:12;100777.25;;;13.72;91.44
73981;BME280;62348;51.412;5.436;2023-09-19T02:46:37;100779.41;;;13.70;91.11
73981;BME280;62348;51.412;5.436;2023-09-19T02:49:03;100769.94;;;13.67;91.81
73981;BME280;62348;51.412;5.436;2023-09-19T02:51:32;100769.69;;;13.63;92.42
73981;BME280;62348;51.412;5.436;2023-09-19T02:53:59;100776.22;;;13.62;91.69
73981;BME280;62348;51.412;5.436;2023-09-19T02:56:24;100772.13;;;13.65;91.78
73981;BME280;62348;51.412;5.436;2023-09-19T02:58:50;100778.66;;;13.64;92.61
73981;BME280;62348;51.412;5.436;2023-09-19T03:01:16;100784.91;;;13.64;92.52
73981;BME280;62348;51.412;5.436;2023-09-19T03:03:43;100781.38;;;13.64;91.97
73981;BME280;62348;51.412;5.436;2023-09-19T03:06:10;100783.25;;;13.63;93.29
73981;BME280;62348;51.412;5.436;2023-09-19T03:08:36;100788.97;;;13.62;92.26
73981;BME280;62348;51.412;5.436;2023-09-19T03:11:04;100785.97;;;13.63;92.20
73981;BME280;62348;51.412;5.436;2023-09-19T03:13:31;100791.69;;;13.62;91.89
73981;BME280;62348;51.412;5.436;2023-09-19T03:15:57;100784.38;;;13.62;91.75
73981;BME280;62348;51.412;5.436;2023-09-19T03:18:24;100774.88;;;13.60;92.44
73981;BME280;62348;51.412;5.436;2023-09-19T03:20:57;100776.25;;;13.57;92.32
73981;BME280;62348;51.412;5.436;2023-09-19T03:23:26;100778.97;;;13.57;92.48
73981;BME280;62348;51.412;5.436;2023-09-19T03:25:53;100776.81;;;13.54;92.54
73981;BME280;62348;51.412;5.436;2023-09-19T03:28:18;100770.03;;;13.52;92.87
73981;BME280;62348;51.412;5.436;2023-09-19T03:30:45;100778.47;;;13.50;92.47
73981;BME280;62348;51.412;5.436;2023-09-19T03:33:11;100784.44;;;13.52;92.90
73981;BME280;62348;51.412;5.436;2023-09-19T03:35:37;100782.53;;;13.53;93.79
73981;BME280;62348;51.412;5.436;2023-09-19T03:38:03;100787.19;;;13.47;93.49
73981;BME280;62348;51.412;5.436;2023-09-19T03:40:29;100787.47;;;13.45;93.80
73981;BME280;62348;51.412;5.436;2023-09-19T03:42:55;100788.53;;;13.50;93.79
73981;BME280;62348;51.412;5.436;2023-09-19T03:45:20;100783.94;;;13.45;94.78
73981;BME280;62348;51.412;5.436;2023-09-19T03:47:45;100781.75;;;13.47;93.87
73981;BME280;62348;51.412;5.436;2023-09-19T03:50:14;100777.97;;;13.43;94.27
73981;BME280;62348;51.412;5.436;2023-09-19T03:52:43;100780.41;;;13.44;95.27
73981;BME280;62348;51.412;5.436;2023-09-19T03:55:09;100777.69;;;13.44;94.52
73981;BME280;62348;51.412;5.436;2023-09-19T03:57:35;100764.94;;;13.45;94.71
73981;BME280;62348;51.412;5.436;2023-09-19T04:00:02;100771.72;;;13.42;95.07
73981;BME280;62348;51.412;5.436;2023-09-19T04:02:27;100774.72;;;13.41;95.41
73981;BME280;62348;51.412;5.436;2023-09-19T04:04:58;100772.53;;;13.43;95.31
73981;BME280;62348;51.412;5.436;2023-09-19T04:07:24;100777.97;;;13.43;95.21
73981;BME280;62348;51.412;5.436;2023-09-19T04:09:51;100777.97;;;13.43;95.13
73981;BME280;62348;51.412;5.436;2023-09-19T04:12:18;100784.78;;;13.40;95.33
73981;BME280;62348;51.412;5.436;2023-09-19T04:14:44;100770.66;;;13.43;95.79
73981;BME280;62348;51.412;5.436;2023-09-19T04:17:10;100772.53;;;13.43;96.40
73981;BME280;62348;51.412;5.436;2023-09-19T04:19:36;100771.19;;;13.40;95.74
73981;BME280;62348;51.412;5.436;2023-09-19T04:22:01;100772.84;;;13.41;95.89
73981;BME280;62348;51.412;5.436;2023-09-19T04:24:28;100773.38;;;13.43;96.45
73981;BME280;62348;51.412;5.436;2023-09-19T04:26:53;100769.81;;;13.43;96.96
73981;BME280;62348;51.412;5.436;2023-09-19T04:29:18;100789.13;;;13.41;95.33
73981;BME280;62348;51.412;5.436;2023-09-19T04:31:45;100796.16;;;13.42;96.46
73981;BME280;62348;51.412;5.436;2023-09-19T04:34:11;100800.28;;;13.40;96.02
73981;BME280;62348;51.412;5.436;2023-09-19T04:36:43;100801.06;;;13.40;97.37
73981;BME280;62348;51.412;5.436;2023-09-19T04:39:08;100809.47;;;13.44;97.07
73981;BME280;62348;51.412;5.436;2023-09-19T04:41:36;100821.41;;;13.43;97.08
73981;BME280;62348;51.412;5.436;2023-09-19T04:44:05;100826.03;;;13.42;97.18
73981;BME280;62348;51.412;5.436;2023-09-19T04:46:30;100835.84;;;13.43;97.34
73981;BME280;62348;51.412;5.436;2023-09-19T04:48:55;100832.28;;;13.43;96.92
73981;BME280;62348;51.412;5.436;2023-09-19T04:51:21;100832.00;;;13.44;96.59
73981;BME280;62348;51.412;5.436;2023-09-19T04:53:46;100838.28;;;13.45;96.62
73981;BME280;62348;51.412;5.436;2023-09-19T04:56:13;100832.84;;;13.45;96.78
73981;BME280;62348;51.412;5.436;2023-09-19T04:58:38;100830.66;;;13.47;96.99
73981;BME280;62348;51.412;5.436;2023-09-19T05:01:04;100836.88;;;13.47;97.64
73981;BME280;62348;51.412;5.436;2023-09-19T05:03:29;100843.13;;;13.48;97.21
73981;BME280;62348;51.412;5.436;2023-09-19T05:05:55;100843.66;;;13.50;97.08
73981;BME280;62348;51.412;5.436;2023-09-19T05:08:20;100840.13;;;13.50;96.91
73981;BME280;62348;51.412;5.436;2023-09-19T05:10:47;100852.59;;;13.51;97.03
73981;BME280;62348;51.412;5.436;2023-09-19T05:13:12;100849.09;;;13.50;96.26
73981;BME280;62348;51.412;5.436;2023-09-19T05:15:38;100851.53;;;13.52;96.77
73981;BME280;62348;51.412;5.436;2023-09-19T05:18:04;100844.19;;;13.52;96.58
73981;BME280;62348;51.412;5.436;2023-09-19T05:20:31;100856.97;;;13.52;96.46
73981;BME280;62348;51.412;5.436;2023-09-19T05:22:59;100860.22;;;13.54;96.04
73981;BME280;62348;51.412;5.436;2023-09-19T05:25:31;100855.03;;;13.52;95.95
73981;BME280;62348;51.412;5.436;2023-09-19T05:27:58;100867.03;;;13.51;96.23
73981;BME280;62348;51.412;5.436;2023-09-19T05:30:25;100864.31;;;13.51;96.48
73981;BME280;62348;51.412;5.436;2023-09-19T05:32:52;100865.91;;;13.52;96.64
73981;BME280;62348;51.412;5.436;2023-09-19T05:35:18;100860.22;;;13.48;97.00
73981;BME280;62348;51.412;5.436;2023-09-19T05:37:43;100853.72;;;13.50;97.41
73981;BME280;62348;51.412;5.436;2023-09-19T05:40:09;100859.69;;;13.46;97.80
73981;BME280;62348;51.412;5.436;2023-09-19T05:42:37;100868.38;;;13.48;97.21
73981;BME280;62348;51.412;5.436;2023-09-19T05:45:05;100868.69;;;13.47;97.38
73981;BME280;62348;51.412;5.436;2023-09-19T05:47:32;100863.25;;;13.47;98.46
73981;BME280;62348;51.412;5.436;2023-09-19T05:49:57;100867.03;;;13.46;97.82
73981;BME280;62348;51.412;5.436;2023-09-19T05:52:22;100862.94;;;13.48;98.46
73981;BME280;62348;51.412;5.436;2023-09-19T05:54:48;100862.41;;;13.46;98.57
73981;BME280;62348;51.412;5.436;2023-09-19T05:57:14;100868.69;;;13.47;99.04
73981;BME280;62348;51.412;5.436;2023-09-19T05:59:40;100861.34;;;13.47;99.33
73981;BME280;62348;51.412;5.436;2023-09-19T06:02:08;100852.66;;;13.45;99.25
73981;BME280;62348;51.412;5.436;2023-09-19T06:04:35;100850.22;;;13.44;99.45
73981;BME280;62348;51.412;5.436;2023-09-19T06:07:00;100851.53;;;13.46;99.60
73981;BME280;62348;51.412;5.436;2023-09-19T06:09:26;100862.94;;;13.48;99.67
73981;BME280;62348;51.412;5.436;2023-09-19T06:11:53;100862.13;;;13.48;98.90
73981;BME280;62348;51.412;5.436;2023-09-19T06:14:19;100863.47;;;13.51;99.18
73981;BME280;62348;51.412;5.436;2023-09-19T06:16:45;100864.03;;;13.53;98.82
73981;BME280;62348;51.412;5.436;2023-09-19T06:19:10;100868.63;;;13.52;99.74
73981;BME280;62348;51.412;5.436;2023-09-19T06:21:36;100871.06;;;13.54;100.00
73981;BME280;62348;51.412;5.436;2023-09-19T06:24:02;100869.69;;;13.56;99.97
73981;BME280;62348;51.412;5.436;2023-09-19T06:26:28;100874.84;;;13.58;99.96
73981;BME280;62348;51.412;5.436;2023-09-19T06:28:54;100878.09;;;13.60;100.00
73981;BME280;62348;51.412;5.436;2023-09-19T06:31:21;100880.00;;;13.59;100.00
73981;BME280;62348;51.412;5.436;2023-09-19T06:33:48;100879.47;;;13.62;100.00
73981;BME280;62348;51.412;5.436;2023-09-19T06:36:14;100884.06;;;13.62;99.88
73981;BME280;62348;51.412;5.436;2023-09-19T06:38:40;100896.84;;;13.61;100.00
73981;BME280;62348;51.412;5.436;2023-09-19T06:41:06;100899.53;;;13.66;100.00
73981;BME280;62348;51.412;5.436;2023-09-19T06:43:35;100892.72;;;13.69;100.00
73981;BME280;62348;51.412;5.436;2023-09-19T06:46:01;100892.72;;;13.69;100.00
73981;BME280;62348;51.412;5.436;2023-09-19T06:48:27;100895.69;;;13.73;100.00
73981;BME280;62348;51.412;5.436;2023-09-19T06:50:54;100901.38;;;13.76;100.00
73981;BME280;62348;51.412;5.436;2023-09-19T06:53:20;100898.13;;;13.79;100.00
73981;BME280;62348;51.412;5.436;2023-09-19T06:55:46;100895.66;;;13.83;100.00
73981;BME280;62348;51.412;5.436;2023-09-19T06:58:12;100899.44;;;13.82;100.00
73981;BME280;62348;51.412;5.436;2023-09-19T07:00:38;100886.38;;;13.84;100.00
73981;BME280;62348;51.412;5.436;2023-09-19T07:03:05;100901.31;;;13.86;100.00
73981;BME280;62348;51.412;5.436;2023-09-19T07:05:34;100909.19;;;13.88;100.00
73981;BME280;62348;51.412;5.436;2023-09-19T07:08:03;100902.94;;;13.88;100.00
73981;BME280;62348;51.412;5.436;2023-09-19T07:10:29;100899.69;;;13.91;100.00
73981;BME280;62348;51.412;5.436;2023-09-19T07:13:03;100901.28;;;13.92;100.00
73981;BME280;62348;51.412;5.436;2023-09-19T07:15:32;100896.91;;;13.96;100.00
73981;BME280;62348;51.412;5.436;2023-09-19T07:17:58;100893.34;;;14.00;100.00
73981;BME280;62348;51.412;5.436;2023-09-19T07:20:26;100899.03;;;14.04;100.00
73981;BME280;62348;51.412;5.436;2023-09-19T07:22:52;100903.91;;;14.07;100.00
73981;BME280;62348;51.412;5.436;2023-09-19T07:25:20;100908.78;;;14.10;100.00
73981;BME280;62348;51.412;5.436;2023-09-19T07:27:46;100907.13;;;14.14;100.00
73981;BME280;62348;51.412;5.436;2023-09-19T07:30:11;100901.13;;;14.17;100.00
73981;BME280;62348;51.412;5.436;2023-09-19T07:32:37;100908.69;;;14.20;100.00
73981;BME280;62348;51.412;5.436;2023-09-19T07:35:04;100903.47;;;14.29;100.00
73981;BME280;62348;51.412;5.436;2023-09-19T07:37:31;100909.59;;;14.45;99.93
73981;BME280;62348;51.412;5.436;2023-09-19T07:40:07;100899.72;;;14.54;98.64
73981;BME280;62348;51.412;5.436;2023-09-19T07:42:34;100895.31;;;14.63;98.15
73981;BME280;62348;51.412;5.436;2023-09-19T07:45:01;100904.66;;;14.81;98.09
73981;BME280;62348;51.412;5.436;2023-09-19T07:47:26;100902.94;;;14.91;96.13
73981;BME280;62348;51.412;5.436;2023-09-19T07:49:52;100910.00;;;14.92;96.45
73981;BME280;62348;51.412;5.436;2023-09-19T07:52:18;100908.56;;;14.99;95.64
73981;BME280;62348;51.412;5.436;2023-09-19T07:54:44;100906.31;;;15.07;96.05
73981;BME280;62348;51.412;5.436;2023-09-19T07:57:10;100908.97;;;15.12;95.57
73981;BME280;62348;51.412;5.436;2023-09-19T07:59:37;100903.75;;;15.15;94.87
73981;BME280;62348;51.412;5.436;2023-09-19T08:02:04;100918.41;;;15.19;95.49
73981;BME280;62348;51.412;5.436;2023-09-19T08:04:30;100901.84;;;15.16;94.81
73981;BME280;62348;51.412;5.436;2023-09-19T08:06:58;100913.03;;;15.14;95.79
73981;BME280;62348;51.412;5.436;2023-09-19T08:09:24;100909.78;;;15.12;95.37
73981;BME280;62348;51.412;5.436;2023-09-19T08:11:49;100900.28;;;15.10;95.50
73981;BME280;62348;51.412;5.436;2023-09-19T08:14:15;100913.31;;;15.13;95.86
73981;BME280;62348;51.412;5.436;2023-09-19T08:16:41;100911.06;;;15.20;95.79
73981;BME280;62348;51.412;5.436;2023-09-19T08:19:09;100918.06;;;15.26;95.77
73981;BME280;62348;51.412;5.436;2023-09-19T08:21:35;100918.44;;;15.38;96.82
73981;BME280;62348;51.412;5.436;2023-09-19T08:24:01;100912.59;;;15.50;96.07
73981;BME280;62348;51.412;5.436;2023-09-19T08:26:29;100925.00;;;15.61;96.56
73981;BME280;62348;51.412;5.436;2023-09-19T08:28:56;100918.38;;;15.68;93.44
73981;BME280;62348;51.412;5.436;2023-09-19T08:31:21;100907.06;;;15.79;93.26
73981;BME280;62348;51.412;5.436;2023-09-19T08:33:48;100911.25;;;15.91;93.43
73981;BME280;62348;51.412;5.436;2023-09-19T08:36:14;100915.47;;;16.02;92.61
73981;BME280;62348;51.412;5.436;2023-09-19T08:38:40;100918.56;;;16.14;92.61
73981;BME280;62348;51.412;5.436;2023-09-19T08:41:07;100925.25;;;16.22;90.14
73981;BME280;62348;51.412;5.436;2023-09-19T08:43:33;100931.63;;;16.31;89.82
73981;BME280;62348;51.412;5.436;2023-09-19T08:48:31;100925.16;;;16.27;90.43
73981;BME280;62348;51.412;5.436;2023-09-19T08:51:00;100914.47;;;16.31;90.04
73981;BME280;62348;51.412;5.436;2023-09-19T08:56:00;100922.66;;;16.31;91.15
73981;BME280;62348;51.412;5.436;2023-09-19T08:58:33;100925.31;;;16.36;89.31
73981;BME280;62348;51.412;5.436;2023-09-19T09:01:00;100914.41;;;16.36;88.85
73981;BME280;62348;51.412;5.436;2023-09-19T09:03:30;100916.53;;;16.39;88.06
73981;BME280;62348;51.412;5.436;2023-09-19T09:05:58;100920.28;;;16.43;87.79
73981;BME280;62348;51.412;5.436;2023-09-19T09:08:24;100906.84;;;16.47;86.82
73981;BME280;62348;51.412;5.436;2023-09-19T09:10:50;100906.97;;;16.55;87.59
73981;BME280;62348;51.412;5.436;2023-09-19T09:13:16;100902.75;;;16.63;88.37
73981;BME280;62348;51.412;5.436;2023-09-19T09:15:43;100924.19;;;16.70;87.06
73981;BME280;62348;51.412;5.436;2023-09-19T09:18:10;100903.88;;;16.76;86.81
73981;BME280;62348;51.412;5.436;2023-09-19T09:20:36;100902.63;;;16.87;86.65
73981;BME280;62348;51.412;5.436;2023-09-19T09:23:01;100900.50;;;16.98;85.52
73981;BME280;62348;51.412;5.436;2023-09-19T09:25:48;100900.72;;;17.15;87.47
73981;BME280;62348;51.412;5.436;2023-09-19T09:28:20;100896.88;;;17.30;86.07
73981;BME280;62348;51.412;5.436;2023-09-19T09:30:46;100906.56;;;17.36;85.20
73981;BME280;62348;51.412;5.436;2023-09-19T09:33:12;100907.25;;;17.56;86.60
73981;BME280;62348;51.412;5.436;2023-09-19T09:35:52;100929.91;;;17.56;86.30
73981;BME280;62348;51.412;5.436;2023-09-19T09:38:21;100913.84;;;17.55;84.13
73981;BME280;62348;51.412;5.436;2023-09-19T09:40:52;100918.19;;;17.56;81.20
73981;BME280;62348;51.412;5.436;2023-09-19T09:43:38;100904.50;;;17.56;82.61
73981;BME280;62348;51.412;5.436;2023-09-19T09:46:19;100915.38;;;17.47;81.44
73981;BME280;62348;51.412;5.436;2023-09-19T09:49:04;100909.06;;;17.47;82.12
73981;BME280;62348;51.412;5.436;2023-09-19T09:51:59;100894.59;;;17.46;82.76
73981;BME280;62348;51.412;5.436;2023-09-19T09:54:28;100900.38;;;17.45;81.68
73981;BME280;62348;51.412;5.436;2023-09-19T09:57:04;100893.38;;;17.52;80.84
73981;BME280;62348;51.412;5.436;2023-09-19T10:02:17;100910.09;;;17.51;79.87
73981;BME280;62348;51.412;5.436;2023-09-19T10:04:53;100894.22;;;17.53;80.45
73981;BME280;62348;51.412;5.436;2023-09-19T10:07:32;100896.31;;;17.56;81.21
73981;BME280;62348;51.412;5.436;2023-09-19T10:10:04;100896.94;;;17.53;78.25
73981;BME280;62348;51.412;5.436;2023-09-19T10:12:58;100884.19;;;17.48;78.76
73981;BME280;62348;51.412;5.436;2023-09-19T10:15:31;100891.78;;;17.51;81.48
73981;BME280;62348;51.412;5.436;2023-09-19T10:18:03;100890.66;;;17.52;80.40
73981;BME280;62348;51.412;5.436;2023-09-19T10:20:29;100888.81;;;17.62;82.91
73981;BME280;62348;51.412;5.436;2023-09-19T10:22:56;100891.03;;;17.60;80.62
73981;BME280;62348;51.412;5.436;2023-09-19T10:25:29;100889.31;;;17.64;80.59
73981;BME280;62348;51.412;5.436;2023-09-19T10:27:57;100877.78;;;17.67;79.72
73981;BME280;62348;51.412;5.436;2023-09-19T10:30:24;100874.72;;;17.68;77.74
73981;BME280;62348;51.412;5.436;2023-09-19T10:32:57;100878.97;;;17.74;78.76
73981;BME280;62348;51.412;5.436;2023-09-19T10:35:23;100877.03;;;17.75;77.65
73981;BME280;62348;51.412;5.436;2023-09-19T10:37:50;100888.66;;;17.81;78.34
73981;BME280;62348;51.412;5.436;2023-09-19T10:40:18;100886.72;;;17.81;76.12
73981;BME280;62348;51.412;5.436;2023-09-19T10:42:46;100888.88;;;17.84;77.27
73981;BME280;62348;51.412;5.436;2023-09-19T10:45:15;100885.91;;;17.94;78.61
73981;BME280;62348;51.412;5.436;2023-09-19T10:47:44;100890.97;;;18.01;76.55
73981;BME280;62348;51.412;5.436;2023-09-19T10:50:30;100890.50;;;18.08;77.67
73981;BME280;62348;51.412;5.436;2023-09-19T10:53:02;100880.25;;;18.13;77.46
73981;BME280;62348;51.412;5.436;2023-09-19T10:55:31;100877.91;;;18.21;76.78
73981;BME280;62348;51.412;5.436;2023-09-19T10:57:58;100874.56;;;18.24;74.13
73981;BME280;62348;51.412;5.436;2023-09-19T11:00:25;100872.00;;;18.27;73.18
73981;BME280;62348;51.412;5.436;2023-09-19T11:03:16;100876.53;;;18.32;75.01
73981;BME280;62348;51.412;5.436;2023-09-19T11:06:13;100868.88;;;18.43;75.00
73981;BME280;62348;51.412;5.436;2023-09-19T11:08:54;100865.94;;;18.39;73.25
73981;BME280;62348;51.412;5.436;2023-09-19T11:14:32;100852.75;;;18.41;74.77
73981;BME280;62348;51.412;5.436;2023-09-19T11:30:35;100849.00;;;18.60;71.79
73981;BME280;62348;51.412;5.436;2023-09-19T11:33:24;100833.53;;;18.64;71.89
73981;BME280;62348;51.412;5.436;2023-09-19T11:36:10;100824.53;;;18.63;70.89
73981;BME280;62348;51.412;5.436;2023-09-19T11:46:29;100810.41;;;18.79;70.99
73981;BME280;62348;51.412;5.436;2023-09-19T11:49:08;100813.84;;;18.84;72.43
73981;BME280;62348;51.412;5.436;2023-09-19T11:51:41;100815.13;;;18.87;70.55
73981;BME280;62348;51.412;5.436;2023-09-19T11:54:11;100813.38;;;18.91;71.17
73981;BME280;62348;51.412;5.436;2023-09-19T11:56:44;100816.28;;;18.95;70.15
73981;BME280;62348;51.412;5.436;2023-09-19T11:59:11;100802.22;;;18.87;68.01
73981;BME280;62348;51.412;5.436;2023-09-19T12:01:41;100809.97;;;18.85;71.01
73981;BME280;62348;51.412;5.436;2023-09-19T12:04:11;100803.06;;;18.88;71.61
73981;BME280;62348;51.412;5.436;2023-09-19T12:06:37;100800.31;;;18.88;69.45
73981;BME280;62348;51.412;5.436;2023-09-19T12:09:04;100805.31;;;18.86;70.24
73981;BME280;62348;51.412;5.436;2023-09-19T12:11:32;100804.00;;;18.83;69.72
73981;BME280;62348;51.412;5.436;2023-09-19T12:13:58;100795.56;;;18.80;70.86
73981;BME280;62348;51.412;5.436;2023-09-19T12:16:26;100801.25;;;18.83;70.58
73981;BME280;62348;51.412;5.436;2023-09-19T12:18:56;100797.41;;;18.84;70.25
73981;BME280;62348;51.412;5.436;2023-09-19T12:21:27;100805.31;;;18.86;73.39
73981;BME280;62348;51.412;5.436;2023-09-19T12:26:28;100798.38;;;18.88;72.17
73981;BME280;62348;51.412;5.436;2023-09-19T12:28:54;100797.59;;;18.88;71.58
73981;BME280;62348;51.412;5.436;2023-09-19T12:31:21;100796.28;;;18.85;72.21
73981;BME280;62348;51.412;5.436;2023-09-19T12:33:53;100807.72;;;18.87;72.38
73981;BME280;62348;51.412;5.436;2023-09-19T12:36:22;100813.66;;;18.81;72.80
73981;BME280;62348;51.412;5.436;2023-09-19T12:38:54;100820.41;;;18.75;72.47
73981;BME280;62348;51.412;5.436;2023-09-19T12:41:20;100804.41;;;18.68;72.53
73981;BME280;62348;51.412;5.436;2023-09-19T12:43:47;100818.56;;;18.61;72.81
73981;BME280;62348;51.412;5.436;2023-09-19T12:46:13;100826.59;;;18.58;70.63
73981;BME280;62348;51.412;5.436;2023-09-19T12:48:40;100822.06;;;18.53;72.54
73981;BME280;62348;51.412;5.436;2023-09-19T12:51:11;100821.56;;;18.51;73.34
73981;BME280;62348;51.412;5.436;2023-09-19T12:56:16;100817.22;;;18.50;73.31
73981;BME280;62348;51.412;5.436;2023-09-19T12:58:56;100795.31;;;18.50;74.24
73981;BME280;62348;51.412;5.436;2023-09-19T13:01:25;100796.91;;;18.51;73.14
73981;BME280;62348;51.412;5.436;2023-09-19T13:06:43;100794.84;;;18.57;75.15
73981;BME280;62348;51.412;5.436;2023-09-19T13:09:10;100796.00;;;18.56;73.61
73981;BME280;62348;51.412;5.436;2023-09-19T13:11:37;100798.72;;;18.56;72.53
73981;BME280;62348;51.412;5.436;2023-09-19T13:14:27;100800.63;;;18.55;73.42
73981;BME280;62348;51.412;5.436;2023-09-19T13:17:06;100806.75;;;18.52;73.05
73981;BME280;62348;51.412;5.436;2023-09-19T13:19:49;100803.84;;;18.48;72.68
73981;BME280;62348;51.412;5.436;2023-09-19T13:25:10;100812.19;;;18.43;73.15
73981;BME280;62348;51.412;5.436;2023-09-19T13:30:12;100799.16;;;18.40;73.32
73981;BME280;62348;51.412;5.436;2023-09-19T13:32:37;100805.25;;;18.37;73.12
73981;BME280;62348;51.412;5.436;2023-09-19T13:35:06;100819.53;;;18.34;73.93
73981;BME280;62348;51.412;5.436;2023-09-19T13:37:34;100807.78;;;18.33;73.02
73981;BME280;62348;51.412;5.436;2023-09-19T13:40:07;100811.34;;;18.34;74.75
73981;BME280;62348;51.412;5.436;2023-09-19T13:42:34;100810.34;;;18.30;74.27
73981;BME280;62348;51.412;5.436;2023-09-19T13:45:00;100809.56;;;18.29;73.43
73981;BME280;62348;51.412;5.436;2023-09-19T13:47:25;100807.13;;;18.28;74.52
73981;BME280;62348;51.412;5.436;2023-09-19T13:49:52;100803.91;;;18.26;74.09
73981;BME280;62348;51.412;5.436;2023-09-19T13:52:21;100807.44;;;18.26;74.81
73981;BME280;62348;51.412;5.436;2023-09-19T13:54:49;100814.03;;;18.25;73.64
73981;BME280;62348;51.412;5.436;2023-09-19T13:57:15;100812.41;;;18.24;75.85
73981;BME280;62348;51.412;5.436;2023-09-19T13:59:41;100809.19;;;18.22;76.63